Time;durP1;ratioP1;P1;durP2;ratioP2;P2;SDS_P1;SDS_P2;PMS_P1;PMS_P2;Temp;Humidity;BMP_temperature;BMP_pressure;BME280_temperature;BME280_humidity;BME280_pressure;Samples;Min_cycle;Max_cycle;Signal;HPM_P1;HPM_P2
2023/08/25 00:01:39;;;;;;;32.60;26.80;;;19.60;99.90;;;;;;20829577;28;21535;-44
2023/08/25 00:11:39;;;;;;;32.42;27.17;;;19.60;99.90;;;;;;20829411;28;20639;-44
2023/08/25 00:21:40;;;;;;;33.40;27.75;;;19.60;99.90;;;;;;20823379;28;20055;-44
2023/08/25 00:31:41;;;;;;;34.35;28.35;;;19.60;99.90;;;;;;20820725;28;20519;-45
2023/08/25 00:41:41;;;;;;;37.88;30.85;;;19.60;99.90;;;;;;20810215;28;20479;-44
2023/08/25 00:51:42;;;;;;;35.63;29.02;;;19.50;99.90;;;;;;20831590;28;20041;-44
2023/08/25 01:01:45;;;;;;;37.58;28.45;;;19.40;99.90;;;;;;20837894;28;20047;-44
2023/08/25 01:12:09;;;;;;;33.42;27.45;;;19.40;99.90;;;;;;20836022;28;20045;-44
2023/08/25 01:22:14;;;;;;;34.13;27.65;;;19.50;99.90;;;;;;20832641;28;20032;-44
2023/08/25 01:32:15;;;;;;;42.03;33.22;;;19.50;99.90;;;;;;20840710;28;20060;-44
2023/08/25 01:42:17;;;;;;;52.42;39.05;;;19.60;99.90;;;;;;20830788;28;20402;-44
2023/08/25 01:52:18;;;;;;;53.33;38.13;;;19.80;99.90;;;;;;20832124;28;20064;-44
2023/08/25 02:02:19;;;;;;;52.97;38.10;;;19.90;99.90;;;;;;20829603;28;20119;-44
2023/08/25 02:12:19;;;;;;;54.40;38.55;;;19.80;99.90;;;;;;20828142;28;20044;-44
2023/08/25 02:22:20;;;;;;;55.88;40.15;;;19.80;99.90;;;;;;20799584;28;20041;-43
2023/08/25 02:32:20;;;;;;;64.90;41.90;;;19.80;99.90;;;;;;20836394;28;20717;-44
2023/08/25 02:42:21;;;;;;;64.90;42.63;;;19.70;99.90;;;;;;20836501;28;20440;-44
2023/08/25 02:52:21;;;;;;;59.88;39.28;;;19.80;99.90;;;;;;20832447;28;20053;-44
2023/08/25 03:02:22;;;;;;;58.25;38.58;;;19.80;99.90;;;;;;20834020;28;20719;-44
2023/08/25 03:12:22;;;;;;;59.65;39.30;;;19.70;99.90;;;;;;20837144;28;20478;-44
2023/08/25 03:22:23;;;;;;;50.30;31.92;;;19.60;99.90;;;;;;20827236;28;20045;-44
2023/08/25 03:32:24;;;;;;;71.20;42.22;;;19.50;99.90;;;;;;20833111;28;20461;-44
2023/08/25 03:42:24;;;;;;;64.03;37.63;;;19.50;99.90;;;;;;20827421;28;20144;-44
2023/08/25 03:52:25;;;;;;;75.68;43.25;;;19.60;99.90;;;;;;20828692;28;20044;-44
2023/08/25 04:02:25;;;;;;;76.18;44.08;;;19.70;99.90;;;;;;20829493;28;20044;-44
2023/08/25 04:12:26;;;;;;;78.85;42.60;;;19.80;99.90;;;;;;20829257;28;20115;-44
2023/08/25 04:22:26;;;;;;;80.15;43.75;;;19.80;99.90;;;;;;20814999;28;20492;-44
2023/08/25 04:32:27;;;;;;;72.68;39.95;;;19.80;99.90;;;;;;20837021;28;20404;-43
2023/08/25 04:42:27;;;;;;;66.90;38.50;;;19.70;99.90;;;;;;20837831;28;20682;-44
2023/08/25 04:52:28;;;;;;;75.28;39.22;;;19.80;99.90;;;;;;20839784;28;20044;-44
2023/08/25 05:02:29;;;;;;;73.15;38.38;;;19.70;99.90;;;;;;20838423;28;20045;-44
2023/08/25 05:12:29;;;;;;;77.55;41.78;;;19.70;99.90;;;;;;20841043;28;20037;-44
2023/08/25 05:22:30;;;;;;;76.00;41.25;;;19.70;99.90;;;;;;20838481;28;20051;-44
2023/08/25 05:32:31;;;;;;;64.07;37.03;;;19.80;99.90;;;;;;20846174;28;20500;-44
2023/08/25 05:42:32;;;;;;;72.55;39.53;;;19.80;99.90;;;;;;20833276;28;20668;-44
2023/08/25 05:52:32;;;;;;;64.43;37.42;;;19.80;99.90;;;;;;20833452;28;20041;-44
2023/08/25 06:02:33;;;;;;;70.78;38.15;;;19.80;99.90;;;;;;20815176;28;20515;-44
2023/08/25 06:12:33;;;;;;;69.47;35.60;;;19.90;99.90;;;;;;20853887;28;20036;-44
2023/08/25 06:22:34;;;;;;;67.10;33.53;;;20.00;99.90;;;;;;20813339;28;20041;-44
2023/08/25 06:32:34;;;;;;;74.63;38.55;;;20.10;99.90;;;;;;20849637;28;20033;-43
2023/08/25 06:42:35;;;;;;;69.28;38.05;;;20.20;99.90;;;;;;20817190;28;20515;-44
2023/08/25 06:52:36;;;;;;;70.03;38.92;;;20.40;99.90;;;;;;20801427;28;20047;-44
2023/08/25 07:02:36;;;;;;;67.45;39.00;;;20.40;99.90;;;;;;20806084;28;20540;-44
2023/08/25 07:12:37;;;;;;;68.77;38.50;;;20.50;99.90;;;;;;20835090;28;20037;-44
2023/08/25 07:22:38;;;;;;;59.33;37.30;;;20.60;99.90;;;;;;20851888;28;20045;-44
2023/08/25 07:32:38;;;;;;;59.45;35.17;;;20.60;99.90;;;;;;20837105;28;20063;-44
2023/08/25 07:42:39;;;;;;;54.20;33.67;;;20.70;99.90;;;;;;20836324;28;20075;-44
2023/08/25 07:52:40;;;;;;;59.40;34.67;;;20.80;99.90;;;;;;20840397;28;20043;-44
2023/08/25 08:02:42;;;;;;;57.15;33.60;;;20.80;99.90;;;;;;20837508;28;20041;-44
2023/08/25 08:12:42;;;;;;;57.10;34.75;;;20.90;99.90;;;;;;20843456;28;20779;-44
2023/08/25 08:22:43;;;;;;;46.83;30.15;;;21.40;99.90;;;;;;20842943;28;20788;-44
2023/08/25 08:32:44;;;;;;;52.47;31.98;;;21.50;99.90;;;;;;20843600;28;20532;-44
2023/08/25 08:42:46;;;;;;;42.63;28.25;;;21.30;99.90;;;;;;20839864;28;20033;-44
2023/08/25 08:52:47;;;;;;;44.13;28.42;;;21.10;99.90;;;;;;20836759;28;20037;-44
2023/08/25 09:02:51;;;;;;;51.53;32.88;;;21.10;99.90;;;;;;20842732;28;20077;-44
2023/08/25 09:12:52;;;;;;;49.08;31.48;;;21.30;99.90;;;;;;20850614;28;20045;-45
2023/08/25 09:22:56;;;;;;;45.17;30.50;;;21.50;44.20;;;;;;20856187;28;20094;-44
2023/08/25 09:33:04;;;;;;;44.47;27.48;;;21.60;31.90;;;;;;20856735;28;20492;-44
2023/08/25 09:43:04;;;;;;;45.70;31.88;;;21.50;57.30;;;;;;20826111;28;20033;-44
2023/08/25 09:53:07;;;;;;;40.83;28.17;;;21.80;76.60;;;;;;20845428;28;20067;-45
2023/08/25 10:03:09;;;;;;;31.70;24.40;;;22.30;43.50;;;;;;20853940;28;20607;-45
2023/08/25 10:13:14;;;;;;;44.38;30.45;;;22.10;22.70;;;;;;20849070;28;20041;-45
2023/08/25 10:23:15;;;;;;;34.92;25.40;;;22.20;16.50;;;;;;20851292;28;20041;-44
2023/08/25 10:33:16;;;;;;;41.38;29.75;;;22.30;8.60;;;;;;20851505;28;20050;-45
2023/08/25 10:43:30;;;;;;;30.92;24.15;;;22.70;1.00;;;;;;20864995;28;20044;-45
2023/08/25 10:53:44;;;;;;;37.63;26.55;;;23.10;1.00;;;;;;20872907;28;20041;-44
2023/08/25 11:03:45;;;;;;;32.72;24.25;;;23.20;1.00;;;;;;20872099;28;20040;-45
2023/08/25 11:13:46;;;;;;;29.42;22.80;;;23.40;1.00;;;;;;20875658;28;20040;-45
2023/08/25 11:23:47;;;;;;;28.05;19.80;;;23.40;1.00;;;;;;20874076;28;20045;-44
2023/08/25 11:33:49;;;;;;;29.27;21.15;;;23.80;1.00;;;;;;20873873;28;20090;-45
2023/08/25 11:43:50;;;;;;;24.02;17.52;;;23.90;1.00;;;;;;20866006;28;20044;-45
2023/08/25 11:53:51;;;;;;;31.35;23.73;;;23.50;1.00;;;;;;20861751;28;20432;-44
2023/08/25 12:03:51;;;;;;;32.13;23.45;;;23.40;1.00;;;;;;20858865;28;20632;-45
2023/08/25 12:13:52;;;;;;;28.08;19.83;;;23.50;1.00;;;;;;20837376;28;21895;-44
2023/08/25 12:23:52;;;;;;;26.85;19.80;;;23.90;1.00;;;;;;20806005;28;22618;-44
2023/08/25 12:33:53;;;;;;;23.20;16.67;;;24.10;1.00;;;;;;20808551;28;20695;-44
2023/08/25 12:43:53;;;;;;;17.27;12.73;;;23.80;1.00;;;;;;20810598;28;20102;-44
2023/08/25 12:53:56;;;;;;;26.48;18.50;;;23.40;1.00;;;;;;20831374;28;20114;-44
2023/08/25 13:03:57;;;;;;;22.73;16.15;;;23.50;1.00;;;;;;20835828;28;20138;-44
2023/08/25 13:13:57;;;;;;;20.92;15.07;;;23.40;1.00;;;;;;20838700;28;20145;-44
2023/08/25 13:23:58;;;;;;;22.85;16.20;;;23.40;1.00;;;;;;20837612;28;20451;-44
2023/08/25 13:33:59;;;;;;;25.10;18.67;;;23.70;1.00;;;;;;20841700;28;20048;-44
2023/08/25 13:43:59;;;;;;;20.95;17.20;;;23.60;1.00;;;;;;20776618;28;20107;-44
2023/08/25 13:54:00;;;;;;;22.15;16.15;;;23.40;1.00;;;;;;20817860;28;20076;-44
2023/08/25 14:04:01;;;;;;;18.58;15.85;;;23.30;1.00;;;;;;20808376;28;20134;-44
2023/08/25 14:14:02;;;;;;;19.70;14.60;;;23.30;1.00;;;;;;20827148;28;20156;-44
2023/08/25 14:24:03;;;;;;;18.33;12.57;;;23.40;1.00;;;;;;20835184;28;20799;-44
2023/08/25 14:34:07;;;;;;;18.63;14.02;;;23.20;1.00;;;;;;20841396;28;20147;-44
2023/08/25 14:44:07;;;;;;;18.10;13.10;;;23.30;1.00;;;;;;20835089;28;20041;-44
2023/08/25 14:54:08;;;;;;;17.55;13.38;;;23.10;1.00;;;;;;20839676;28;20059;-44
2023/08/25 15:04:09;;;;;;;19.52;12.75;;;22.90;1.00;;;;;;20840328;28;20045;-44
2023/08/25 15:14:09;;;;;;;16.40;11.60;;;22.80;1.00;;;;;;20832176;28;20045;-44
2023/08/25 15:24:10;;;;;;;15.95;12.13;;;22.80;1.00;;;;;;20815974;28;20053;-44
2023/08/25 15:34:10;;;;;;;16.73;12.50;;;22.70;1.00;;;;;;20828336;28;20054;-44
2023/08/25 15:44:11;;;;;;;14.85;11.27;;;22.70;1.00;;;;;;20807171;28;20042;-44
2023/08/25 15:54:11;;;;;;;12.63;9.23;;;22.80;1.00;;;;;;20820332;28;20040;-44
2023/08/25 16:04:12;;;;;;;13.88;10.15;;;23.20;1.00;;;;;;20814985;28;20468;-44
2023/08/25 16:14:14;;;;;;;13.05;8.68;;;23.00;1.00;;;;;;20811607;28;20041;-44
2023/08/25 16:24:15;;;;;;;12.82;8.48;;;22.60;1.00;;;;;;20824699;28;20044;-44
2023/08/25 16:34:15;;;;;;;12.13;8.68;;;22.20;1.00;;;;;;20828330;28;20504;-43
2023/08/25 16:44:17;;;;;;;11.70;8.25;;;21.80;1.00;;;;;;20821672;28;20064;-44
2023/08/25 16:54:17;;;;;;;8.90;6.93;;;21.60;1.00;;;;;;20820270;28;20512;-44
2023/08/25 17:04:18;;;;;;;7.00;5.47;;;21.40;1.00;;;;;;20826976;28;20052;-44
2023/08/25 17:14:21;;;;;;;7.95;4.65;;;21.30;1.00;;;;;;20782818;28;20606;-43
2023/08/25 17:24:21;;;;;;;7.63;4.80;;;20.90;1.00;;;;;;20812374;28;20048;-44
2023/08/25 17:34:22;;;;;;;8.68;6.47;;;20.70;1.00;;;;;;20808140;28;20080;-43
2023/08/25 17:44:22;;;;;;;7.38;5.90;;;20.50;1.00;;;;;;20797039;28;20450;-44
2023/08/25 17:54:23;;;;;;;7.07;5.90;;;20.40;1.00;;;;;;20742254;28;20517;-43
2023/08/25 18:04:24;;;;;;;7.82;5.00;;;20.30;1.00;;;;;;20758220;28;20688;-44
2023/08/25 18:14:24;;;;;;;11.68;7.05;;;20.00;1.00;;;;;;20815056;28;20174;-43
2023/08/25 18:24:25;;;;;;;9.23;6.63;;;19.80;1.00;;;;;;20800004;28;20052;-44
2023/08/25 18:34:25;;;;;;;8.88;6.32;;;19.70;1.00;;;;;;20808894;28;20413;-44
2023/08/25 18:44:26;;;;;;;14.43;11.00;;;19.40;1.00;;;;;;20810018;28;20132;-44
2023/08/25 18:54:26;;;;;;;9.35;6.70;;;19.40;1.00;;;;;;20808029;28;20064;-44
2023/08/25 19:04:27;;;;;;;7.47;4.53;;;19.50;1.00;;;;;;20804252;28;20052;-44
2023/08/25 19:14:27;;;;;;;5.65;2.58;;;19.40;1.00;;;;;;20800104;28;20076;-44
2023/08/25 19:24:29;;;;;;;8.57;3.63;;;19.20;1.00;;;;;;20796501;28;20045;-44
2023/08/25 19:34:30;;;;;;;5.53;2.55;;;19.00;1.00;;;;;;20792577;28;20056;-44
2023/08/25 19:44:31;;;;;;;4.72;2.30;;;18.80;1.00;;;;;;20800470;28;20040;-43
2023/08/25 19:54:32;;;;;;;5.22;3.10;;;18.80;1.00;;;;;;20796953;28;20045;-43
2023/08/25 20:04:32;;;;;;;5.38;2.42;;;18.80;1.00;;;;;;20800572;28;20055;-44
2023/08/25 20:14:34;;;;;;;3.37;2.07;;;18.60;1.00;;;;;;20812708;28;20091;-44
2023/08/25 20:24:34;;;;;;;4.07;2.50;;;18.70;1.00;;;;;;20818833;28;20529;-43
2023/08/25 20:34:35;;;;;;;4.73;2.30;;;18.50;1.00;;;;;;20814949;28;20044;-44
2023/08/25 20:44:36;;;;;;;4.00;2.57;;;18.40;1.00;;;;;;20815105;28;21237;-44
2023/08/25 20:54:37;;;;;;;7.70;2.30;;;18.20;1.00;;;;;;20797740;28;20546;-44
2023/08/25 21:04:37;;;;;;;4.32;2.35;;;18.00;1.00;;;;;;20801377;28;20359;-43
2023/08/25 21:14:38;;;;;;;7.70;4.82;;;17.80;1.00;;;;;;20823262;28;20172;-43
2023/08/25 21:24:41;;;;;;;5.45;2.97;;;17.60;1.00;;;;;;20835535;28;20505;-44
2023/08/25 21:34:42;;;;;;;4.82;2.38;;;17.50;1.00;;;;;;20831690;28;20131;-43
2023/08/25 21:44:42;;;;;;;8.63;2.70;;;17.40;1.00;;;;;;20832287;28;20076;-43
2023/08/25 21:54:43;;;;;;;5.50;2.70;;;17.20;1.00;;;;;;20832298;28;20033;-43
2023/08/25 22:04:43;;;;;;;4.57;2.35;;;17.10;1.00;;;;;;20820049;28;20538;-43
2023/08/25 22:14:44;;;;;;;3.03;1.90;;;17.10;1.00;;;;;;20806489;28;20476;-43
2023/08/25 22:24:44;;;;;;;6.37;2.60;;;17.00;1.00;;;;;;20816114;28;20539;-43
2023/08/25 22:34:45;;;;;;;3.33;2.20;;;17.00;1.00;;;;;;20830206;28;20053;-44
2023/08/25 22:44:45;;;;;;;6.38;2.75;;;16.80;1.00;;;;;;20813544;28;20050;-43
2023/08/25 22:54:46;;;;;;;6.43;3.20;;;16.70;1.00;;;;;;20815031;28;20140;-43
2023/08/25 23:04:47;;;;;;;4.88;2.42;;;16.70;1.00;;;;;;20809395;28;20037;-43
2023/08/25 23:14:48;;;;;;;4.18;3.00;;;16.60;1.00;;;;;;20813353;28;20488;-43
2023/08/25 23:24:48;;;;;;;4.35;2.28;;;16.50;1.00;;;;;;20803039;28;20501;-44
2023/08/25 23:34:49;;;;;;;6.47;2.45;;;16.50;1.00;;;;;;20807958;28;20742;-43
2023/08/25 23:44:50;;;;;;;6.03;2.28;;;16.50;1.00;;;;;;20806807;28;20053;-43
2023/08/25 23:54:50;;;;;;;5.32;2.17;;;16.50;1.00;;;;;;20804207;28;20063;-43
